sensor_id;sensor_type;location;lat;lon;timestamp;pressure;altitude;pressure_sealevel;temperature;humidity
2563;BME280;1291;51.420;6.970;2022-11-18T00:01:10;98022.63;;;24.29;28.68
2563;BME280;1291;51.420;6.970;2022-11-18T00:03:40;98037.41;;;24.62;28.54
2563;BME280;1291;51.420;6.970;2022-11-18T00:06:10;98032.44;;;25.53;26.72
2563;BME280;1291;51.420;6.970;2022-11-18T00:08:35;98041.63;;;25.20;27.26
2563;BME280;1291;51.420;6.970;2022-11-18T00:11:12;98033.25;;;25.41;27.05
2563;BME280;1291;51.420;6.970;2022-11-18T00:14:00;98039.25;;;25.57;26.97
2563;BME280;1291;51.420;6.970;2022-11-18T00:19:15;98035.91;;;25.41;27.22
2563;BME280;1291;51.420;6.970;2022-11-18T00:21:40;98046.94;;;25.75;26.53
2563;BME280;1291;51.420;6.970;2022-11-18T00:24:06;98047.88;;;25.61;26.80
2563;BME280;1291;51.420;6.970;2022-11-18T00:26:31;98051.75;;;25.01;27.11
2563;BME280;1291;51.420;6.970;2022-11-18T00:28:57;98059.44;;;26.13;26.05
2563;BME280;1291;51.420;6.970;2022-11-18T00:31:25;98060.22;;;25.20;26.87
2563;BME280;1291;51.420;6.970;2022-11-18T00:33:54;98057.41;;;23.80;29.54
2563;BME280;1291;51.420;6.970;2022-11-18T00:36:19;98056.91;;;24.75;27.93
2563;BME280;1291;51.420;6.970;2022-11-18T00:38:44;98050.31;;;24.68;28.27
2563;BME280;1291;51.420;6.970;2022-11-18T00:41:14;98063.06;;;25.32;27.50
2563;BME280;1291;51.420;6.970;2022-11-18T00:43:40;98061.75;;;23.51;29.64
2563;BME280;1291;51.420;6.970;2022-11-18T00:46:10;98058.25;;;24.54;28.40
2563;BME280;1291;51.420;6.970;2022-11-18T00:48:42;98058.97;;;23.98;29.14
2563;BME280;1291;51.420;6.970;2022-11-18T00:51:14;98061.16;;;24.06;29.25
2563;BME280;1291;51.420;6.970;2022-11-18T00:53:43;98067.41;;;24.91;28.33
2563;BME280;1291;51.420;6.970;2022-11-18T00:56:09;98059.53;;;25.04;27.49
2563;BME280;1291;51.420;6.970;2022-11-18T00:58:35;98069.88;;;23.32;31.02
2563;BME280;1291;51.420;6.970;2022-11-18T01:01:03;98069.75;;;23.49;30.45
2563;BME280;1291;51.420;6.970;2022-11-18T01:03:29;98072.34;;;23.81;30.67
2563;BME280;1291;51.420;6.970;2022-11-18T01:05:54;98072.84;;;24.46;29.45
2563;BME280;1291;51.420;6.970;2022-11-18T01:08:20;98082.22;;;23.63;30.53
2563;BME280;1291;51.420;6.970;2022-11-18T01:10:47;98087.09;;;25.16;28.18
2563;BME280;1291;51.420;6.970;2022-11-18T01:13:16;98089.25;;;24.82;28.78
2563;BME280;1291;51.420;6.970;2022-11-18T01:15:52;98090.31;;;25.75;27.22
2563;BME280;1291;51.420;6.970;2022-11-18T01:18:21;98084.91;;;25.77;27.51
2563;BME280;1291;51.420;6.970;2022-11-18T01:20:47;98094.47;;;24.55;29.01
2563;BME280;1291;51.420;6.970;2022-11-18T01:23:19;98094.47;;;23.34;31.07
2563;BME280;1291;51.420;6.970;2022-11-18T01:25:46;98094.56;;;23.16;30.74
2563;BME280;1291;51.420;6.970;2022-11-18T01:28:12;98108.16;;;23.88;30.38
2563;BME280;1291;51.420;6.970;2022-11-18T01:30:40;98099.69;;;24.12;29.39
2563;BME280;1291;51.420;6.970;2022-11-18T01:33:06;98100.31;;;24.60;28.87
2563;BME280;1291;51.420;6.970;2022-11-18T01:35:40;98103.47;;;24.07;29.46
2563;BME280;1291;51.420;6.970;2022-11-18T01:38:07;98101.84;;;24.05;29.77
2563;BME280;1291;51.420;6.970;2022-11-18T01:40:34;98105.41;;;24.34;29.24
2563;BME280;1291;51.420;6.970;2022-11-18T01:43:00;98109.69;;;25.23;27.85
2563;BME280;1291;51.420;6.970;2022-11-18T01:45:31;98117.31;;;24.57;28.49
2563;BME280;1291;51.420;6.970;2022-11-18T01:50:27;98110.81;;;25.04;28.12
2563;BME280;1291;51.420;6.970;2022-11-18T01:52:57;98117.34;;;22.54;32.31
2563;BME280;1291;51.420;6.970;2022-11-18T01:55:26;98121.66;;;23.67;30.22
2563;BME280;1291;51.420;6.970;2022-11-18T01:57:57;98121.66;;;23.83;30.17
2563;BME280;1291;51.420;6.970;2022-11-18T02:00:27;98121.81;;;23.96;29.63
2563;BME280;1291;51.420;6.970;2022-11-18T02:02:56;98117.72;;;25.36;27.46
2563;BME280;1291;51.420;6.970;2022-11-18T02:05:22;98116.16;;;25.46;27.55
2563;BME280;1291;51.420;6.970;2022-11-18T02:07:48;98124.94;;;24.33;29.09
2563;BME280;1291;51.420;6.970;2022-11-18T02:10:23;98124.94;;;25.05;28.14
2563;BME280;1291;51.420;6.970;2022-11-18T02:12:50;98123.03;;;24.50;28.88
2563;BME280;1291;51.420;6.970;2022-11-18T02:15:26;98128.31;;;24.80;28.21
2563;BME280;1291;51.420;6.970;2022-11-18T02:18:13;98131.91;;;24.20;29.21
2563;BME280;1291;51.420;6.970;2022-11-18T02:20:41;98131.06;;;24.19;29.01
2563;BME280;1291;51.420;6.970;2022-11-18T02:23:19;98130.09;;;24.94;28.03
2563;BME280;1291;51.420;6.970;2022-11-18T02:32:05;98133.59;;;25.77;26.64
2563;BME280;1291;51.420;6.970;2022-11-18T02:34:51;98140.34;;;24.71;28.19
2563;BME280;1291;51.420;6.970;2022-11-18T02:40:16;98141.91;;;25.31;27.38
2563;BME280;1291;51.420;6.970;2022-11-18T02:42:47;98147.88;;;25.20;27.41
2563;BME280;1291;51.420;6.970;2022-11-18T02:45:16;98146.88;;;24.65;28.08
2563;BME280;1291;51.420;6.970;2022-11-18T02:47:43;98146.66;;;25.40;27.35
2563;BME280;1291;51.420;6.970;2022-11-18T02:50:12;98142.44;;;26.05;26.16
2563;BME280;1291;51.420;6.970;2022-11-18T02:52:40;98148.59;;;23.76;30.27
2563;BME280;1291;51.420;6.970;2022-11-18T02:55:08;98147.38;;;24.27;29.10
2563;BME280;1291;51.420;6.970;2022-11-18T02:57:36;98150.94;;;24.71;28.13
2563;BME280;1291;51.420;6.970;2022-11-18T03:00:07;98148.09;;;25.17;28.08
2563;BME280;1291;51.420;6.970;2022-11-18T03:05:09;98159.78;;;24.27;29.83
2563;BME280;1291;51.420;6.970;2022-11-18T03:07:41;98165.47;;;23.59;30.29
2563;BME280;1291;51.420;6.970;2022-11-18T03:10:10;98165.25;;;25.40;27.41
2563;BME280;1291;51.420;6.970;2022-11-18T03:12:46;98170.63;;;24.22;29.54
2563;BME280;1291;51.420;6.970;2022-11-18T03:15:23;98177.88;;;24.94;27.91
2563;BME280;1291;51.420;6.970;2022-11-18T03:20:29;98185.16;;;24.61;28.38
2563;BME280;1291;51.420;6.970;2022-11-18T03:23:03;98186.13;;;24.75;28.38
2563;BME280;1291;51.420;6.970;2022-11-18T03:25:41;98182.63;;;25.32;27.81
2563;BME280;1291;51.420;6.970;2022-11-18T03:28:13;98192.09;;;24.78;28.46
2563;BME280;1291;51.420;6.970;2022-11-18T03:30:45;98190.22;;;24.50;29.12
2563;BME280;1291;51.420;6.970;2022-11-18T03:33:20;98188.38;;;25.38;27.18
2563;BME280;1291;51.420;6.970;2022-11-18T03:35:49;98197.19;;;24.53;28.44
2563;BME280;1291;51.420;6.970;2022-11-18T03:38:18;98197.81;;;23.16;30.56
2563;BME280;1291;51.420;6.970;2022-11-18T03:40:50;98197.69;;;25.73;27.18
2563;BME280;1291;51.420;6.970;2022-11-18T03:43:21;98201.53;;;24.23;29.04
2563;BME280;1291;51.420;6.970;2022-11-18T03:45:56;98205.44;;;22.71;31.79
2563;BME280;1291;51.420;6.970;2022-11-18T03:48:51;98215.44;;;23.00;31.75
2563;BME280;1291;51.420;6.970;2022-11-18T03:51:18;98210.28;;;24.40;28.75
2563;BME280;1291;51.420;6.970;2022-11-18T03:54:15;98220.47;;;23.69;29.82
2563;BME280;1291;51.420;6.970;2022-11-18T03:56:45;98221.75;;;23.30;30.66
2563;BME280;1291;51.420;6.970;2022-11-18T03:59:18;98221.44;;;23.68;30.64
2563;BME280;1291;51.420;6.970;2022-11-18T04:01:52;98223.13;;;23.69;29.64
2563;BME280;1291;51.420;6.970;2022-11-18T04:04:20;98222.34;;;23.20;30.74
2563;BME280;1291;51.420;6.970;2022-11-18T04:06:50;98226.66;;;24.02;29.97
2563;BME280;1291;51.420;6.970;2022-11-18T04:09:46;98226.47;;;23.73;29.97
2563;BME280;1291;51.420;6.970;2022-11-18T04:12:15;98245.06;;;22.73;32.04
2563;BME280;1291;51.420;6.970;2022-11-18T04:14:43;98244.03;;;23.26;31.23
2563;BME280;1291;51.420;6.970;2022-11-18T04:17:19;98252.56;;;23.16;31.08
2563;BME280;1291;51.420;6.970;2022-11-18T04:19:45;98249.47;;;24.04;29.83
2563;BME280;1291;51.420;6.970;2022-11-18T04:22:11;98251.25;;;24.80;28.89
2563;BME280;1291;51.420;6.970;2022-11-18T04:24:37;98259.75;;;22.44;32.69
2563;BME280;1291;51.420;6.970;2022-11-18T04:27:03;98261.31;;;21.94;34.03
2563;BME280;1291;51.420;6.970;2022-11-18T04:29:30;98251.44;;;22.34;33.34
2563;BME280;1291;51.420;6.970;2022-11-18T04:31:55;98254.69;;;24.36;29.78
2563;BME280;1291;51.420;6.970;2022-11-18T04:34:21;98258.25;;;23.57;30.74
2563;BME280;1291;51.420;6.970;2022-11-18T04:36:49;98255.34;;;22.44;32.51
2563;BME280;1291;51.420;6.970;2022-11-18T04:39:14;98251.94;;;24.54;29.43
2563;BME280;1291;51.420;6.970;2022-11-18T04:41:42;98263.28;;;25.31;28.38
2563;BME280;1291;51.420;6.970;2022-11-18T04:44:20;98258.53;;;23.03;31.41
2563;BME280;1291;51.420;6.970;2022-11-18T04:46:45;98263.16;;;23.16;31.68
2563;BME280;1291;51.420;6.970;2022-11-18T04:49:13;98255.56;;;23.91;30.00
2563;BME280;1291;51.420;6.970;2022-11-18T04:51:39;98267.59;;;22.98;31.49
2563;BME280;1291;51.420;6.970;2022-11-18T04:54:04;98270.75;;;23.22;31.24
2563;BME280;1291;51.420;6.970;2022-11-18T04:56:30;98269.19;;;23.67;30.37
2563;BME280;1291;51.420;6.970;2022-11-18T04:58:59;98275.91;;;24.82;28.84
2563;BME280;1291;51.420;6.970;2022-11-18T05:01:26;98270.16;;;23.66;30.19
2563;BME280;1291;51.420;6.970;2022-11-18T05:03:52;98279.06;;;22.46;32.41
2563;BME280;1291;51.420;6.970;2022-11-18T05:06:17;98278.53;;;22.57;32.33
2563;BME280;1291;51.420;6.970;2022-11-18T05:08:45;98274.06;;;23.43;30.90
2563;BME280;1291;51.420;6.970;2022-11-18T05:11:11;98280.59;;;24.63;28.94
2563;BME280;1291;51.420;6.970;2022-11-18T05:13:55;98282.72;;;22.78;32.15
2563;BME280;1291;51.420;6.970;2022-11-18T05:16:20;98282.34;;;23.37;31.01
2563;BME280;1291;51.420;6.970;2022-11-18T05:18:45;98290.44;;;23.99;29.92
2563;BME280;1291;51.420;6.970;2022-11-18T05:21:11;98297.75;;;24.41;29.76
2563;BME280;1291;51.420;6.970;2022-11-18T05:23:36;98299.06;;;22.69;32.04
2563;BME280;1291;51.420;6.970;2022-11-18T05:26:06;98311.84;;;22.24;32.85
2563;BME280;1291;51.420;6.970;2022-11-18T05:28:33;98310.88;;;22.97;32.23
2563;BME280;1291;51.420;6.970;2022-11-18T05:30:58;98310.06;;;25.03;28.53
2563;BME280;1291;51.420;6.970;2022-11-18T05:33:24;98308.28;;;23.79;30.17
2563;BME280;1291;51.420;6.970;2022-11-18T05:35:49;98317.09;;;23.64;30.77
2563;BME280;1291;51.420;6.970;2022-11-18T05:38:15;98315.56;;;23.76;30.47
2563;BME280;1291;51.420;6.970;2022-11-18T05:40:43;98318.78;;;24.44;29.31
2563;BME280;1291;51.420;6.970;2022-11-18T05:43:09;98319.25;;;22.35;32.81
2563;BME280;1291;51.420;6.970;2022-11-18T05:45:38;98334.66;;;23.82;30.12
2563;BME280;1291;51.420;6.970;2022-11-18T05:48:05;98328.47;;;23.33;31.48
2563;BME280;1291;51.420;6.970;2022-11-18T05:50:34;98330.72;;;22.53;32.54
2563;BME280;1291;51.420;6.970;2022-11-18T05:53:03;98329.44;;;23.63;31.06
2563;BME280;1291;51.420;6.970;2022-11-18T05:58:15;98336.44;;;23.82;30.06
2563;BME280;1291;51.420;6.970;2022-11-18T06:00:41;98336.56;;;23.63;30.33
2563;BME280;1291;51.420;6.970;2022-11-18T06:03:12;98336.56;;;24.74;28.20
2563;BME280;1291;51.420;6.970;2022-11-18T06:05:40;98345.53;;;22.92;31.84
2563;BME280;1291;51.420;6.970;2022-11-18T06:08:07;98348.75;;;24.46;28.96
2563;BME280;1291;51.420;6.970;2022-11-18T06:10:36;98346.47;;;25.31;27.94
2563;BME280;1291;51.420;6.970;2022-11-18T06:13:07;98348.75;;;25.52;27.21
2563;BME280;1291;51.420;6.970;2022-11-18T06:15:37;98352.34;;;24.30;29.06
2563;BME280;1291;51.420;6.970;2022-11-18T06:18:08;98360.47;;;23.95;30.02
2563;BME280;1291;51.420;6.970;2022-11-18T06:20:37;98365.25;;;24.36;29.19
2563;BME280;1291;51.420;6.970;2022-11-18T06:23:04;98367.22;;;23.51;30.48
2563;BME280;1291;51.420;6.970;2022-11-18T06:25:30;98369.41;;;22.90;31.64
2563;BME280;1291;51.420;6.970;2022-11-18T06:27:58;98373.19;;;23.04;31.39
2563;BME280;1291;51.420;6.970;2022-11-18T06:30:24;98377.97;;;23.81;30.10
2563;BME280;1291;51.420;6.970;2022-11-18T06:32:50;98381.34;;;23.67;30.09
2563;BME280;1291;51.420;6.970;2022-11-18T06:35:15;98380.75;;;22.75;32.05
2563;BME280;1291;51.420;6.970;2022-11-18T06:37:40;98395.00;;;22.17;33.73
2563;BME280;1291;51.420;6.970;2022-11-18T06:40:06;98383.91;;;23.18;31.33
2563;BME280;1291;51.420;6.970;2022-11-18T06:42:32;98402.06;;;23.26;31.42
2563;BME280;1291;51.420;6.970;2022-11-18T06:45:16;98406.84;;;23.00;31.47
2563;BME280;1291;51.420;6.970;2022-11-18T06:47:41;98401.94;;;23.62;30.80
2563;BME280;1291;51.420;6.970;2022-11-18T06:50:07;98411.63;;;22.94;31.64
2563;BME280;1291;51.420;6.970;2022-11-18T06:52:32;98409.28;;;23.22;31.25
2563;BME280;1291;51.420;6.970;2022-11-18T06:54:57;98406.16;;;24.47;29.43
2563;BME280;1291;51.420;6.970;2022-11-18T06:57:23;98413.66;;;23.41;30.28
2563;BME280;1291;51.420;6.970;2022-11-18T06:59:49;98417.66;;;23.99;29.61
2563;BME280;1291;51.420;6.970;2022-11-18T07:02:14;98430.63;;;22.08;33.10
2563;BME280;1291;51.420;6.970;2022-11-18T07:04:42;98431.78;;;22.60;32.57
2563;BME280;1291;51.420;6.970;2022-11-18T07:07:08;98434.31;;;23.67;30.25
2563;BME280;1291;51.420;6.970;2022-11-18T07:09:34;98439.34;;;22.67;32.12
2563;BME280;1291;51.420;6.970;2022-11-18T07:12:03;98447.16;;;22.14;33.06
2563;BME280;1291;51.420;6.970;2022-11-18T07:14:29;98437.31;;;22.92;31.93
2563;BME280;1291;51.420;6.970;2022-11-18T07:16:55;98449.63;;;22.74;31.91
2563;BME280;1291;51.420;6.970;2022-11-18T07:19:23;98448.97;;;22.87;31.74
2563;BME280;1291;51.420;6.970;2022-11-18T07:21:49;98457.59;;;23.27;31.03
2563;BME280;1291;51.420;6.970;2022-11-18T07:24:14;98463.03;;;21.74;33.77
2563;BME280;1291;51.420;6.970;2022-11-18T07:26:40;98461.41;;;21.90;33.41
2563;BME280;1291;51.420;6.970;2022-11-18T07:29:06;98468.41;;;21.91;33.54
2563;BME280;1291;51.420;6.970;2022-11-18T07:31:32;98459.41;;;25.22;28.17
2563;BME280;1291;51.420;6.970;2022-11-18T07:33:59;98467.78;;;23.53;30.35
2563;BME280;1291;51.420;6.970;2022-11-18T07:36:26;98473.25;;;24.50;28.84
2563;BME280;1291;51.420;6.970;2022-11-18T07:38:53;98480.50;;;24.46;28.96
2563;BME280;1291;51.420;6.970;2022-11-18T07:41:21;98481.41;;;23.10;31.50
2563;BME280;1291;51.420;6.970;2022-11-18T07:43:48;98483.94;;;24.32;28.96
2563;BME280;1291;51.420;6.970;2022-11-18T07:46:18;98491.63;;;23.87;30.44
2563;BME280;1291;51.420;6.970;2022-11-18T07:48:45;98503.47;;;23.45;30.72
2563;BME280;1291;51.420;6.970;2022-11-18T07:51:13;98501.59;;;23.65;30.84
2563;BME280;1291;51.420;6.970;2022-11-18T07:53:39;98503.94;;;23.36;31.33
2563;BME280;1291;51.420;6.970;2022-11-18T07:56:05;98505.31;;;24.29;29.76
2563;BME280;1291;51.420;6.970;2022-11-18T07:58:31;98519.34;;;22.54;32.66
2563;BME280;1291;51.420;6.970;2022-11-18T08:00:57;98515.59;;;24.35;29.90
2563;BME280;1291;51.420;6.970;2022-11-18T08:03:26;98517.56;;;22.73;32.25
2563;BME280;1291;51.420;6.970;2022-11-18T08:05:57;98517.88;;;24.59;29.72
2563;BME280;1291;51.420;6.970;2022-11-18T08:08:22;98523.63;;;22.75;32.30
2563;BME280;1291;51.420;6.970;2022-11-18T08:10:47;98523.75;;;24.15;30.18
2563;BME280;1291;51.420;6.970;2022-11-18T08:13:13;98523.91;;;24.45;29.52
2563;BME280;1291;51.420;6.970;2022-11-18T08:15:40;98525.91;;;23.91;30.24
2563;BME280;1291;51.420;6.970;2022-11-18T08:18:09;98515.66;;;24.83;29.10
2563;BME280;1291;51.420;6.970;2022-11-18T08:20:34;98531.75;;;24.96;28.66
2563;BME280;1291;51.420;6.970;2022-11-18T08:23:00;98524.72;;;24.95;28.55
2563;BME280;1291;51.420;6.970;2022-11-18T08:25:25;98534.31;;;23.29;31.09
2563;BME280;1291;51.420;6.970;2022-11-18T08:27:50;98534.50;;;23.78;30.25
2563;BME280;1291;51.420;6.970;2022-11-18T08:30:16;98540.28;;;23.86;30.05
2563;BME280;1291;51.420;6.970;2022-11-18T08:32:42;98537.44;;;23.37;31.32
2563;BME280;1291;51.420;6.970;2022-11-18T08:35:07;98540.59;;;24.80;29.13
2563;BME280;1291;51.420;6.970;2022-11-18T08:37:33;98542.19;;;24.00;30.04
2563;BME280;1291;51.420;6.970;2022-11-18T08:39:58;98541.81;;;23.91;30.87
2563;BME280;1291;51.420;6.970;2022-11-18T08:42:23;98548.63;;;23.79;30.66
2563;BME280;1291;51.420;6.970;2022-11-18T08:44:49;98544.81;;;22.75;32.29
2563;BME280;1291;51.420;6.970;2022-11-18T08:47:15;98558.31;;;21.90;34.19
2563;BME280;1291;51.420;6.970;2022-11-18T08:49:40;98554.00;;;22.28;33.82
2563;BME280;1291;51.420;6.970;2022-11-18T08:52:07;98563.41;;;23.12;32.07
2563;BME280;1291;51.420;6.970;2022-11-18T08:54:32;98556.44;;;24.98;29.12
2563;BME280;1291;51.420;6.970;2022-11-18T08:56:57;98559.69;;;24.20;29.97
2563;BME280;1291;51.420;6.970;2022-11-18T08:59:23;98571.31;;;23.48;31.36
2563;BME280;1291;51.420;6.970;2022-11-18T09:01:48;98557.69;;;25.22;28.64
2563;BME280;1291;51.420;6.970;2022-11-18T09:04:13;98566.47;;;22.83;32.51
2563;BME280;1291;51.420;6.970;2022-11-18T09:06:39;98575.19;;;22.47;33.66
2563;BME280;1291;51.420;6.970;2022-11-18T09:09:05;98573.03;;;23.13;32.17
2563;BME280;1291;51.420;6.970;2022-11-18T09:11:34;98571.84;;;22.63;32.60
2563;BME280;1291;51.420;6.970;2022-11-18T09:14:02;98580.16;;;23.66;31.38
2563;BME280;1291;51.420;6.970;2022-11-18T09:16:30;98579.13;;;23.51;31.16
2563;BME280;1291;51.420;6.970;2022-11-18T09:18:56;98570.72;;;24.13;29.73
2563;BME280;1291;51.420;6.970;2022-11-18T09:21:25;98576.13;;;25.25;28.31
2563;BME280;1291;51.420;6.970;2022-11-18T09:23:51;98578.50;;;22.32;32.76
2563;BME280;1291;51.420;6.970;2022-11-18T09:26:18;98586.28;;;22.94;32.15
2563;BME280;1291;51.420;6.970;2022-11-18T09:28:49;98596.28;;;22.49;32.88
2563;BME280;1291;51.420;6.970;2022-11-18T09:31:15;98596.03;;;23.12;31.70
2563;BME280;1291;51.420;6.970;2022-11-18T09:33:41;98588.13;;;23.83;30.54
2563;BME280;1291;51.420;6.970;2022-11-18T09:36:21;98589.63;;;24.89;29.03
2563;BME280;1291;51.420;6.970;2022-11-18T09:38:47;98594.16;;;24.71;28.79
2563;BME280;1291;51.420;6.970;2022-11-18T09:41:47;98609.19;;;23.50;30.71
2563;BME280;1291;51.420;6.970;2022-11-18T09:44:54;98611.41;;;23.23;30.85
2563;BME280;1291;51.420;6.970;2022-11-18T09:47:30;98608.69;;;25.29;28.52
2563;BME280;1291;51.420;6.970;2022-11-18T09:52:35;98614.63;;;24.18;29.58
2563;BME280;1291;51.420;6.970;2022-11-18T09:55:04;98612.75;;;24.71;29.14
2563;BME280;1291;51.420;6.970;2022-11-18T09:57:43;98625.34;;;22.88;31.51
2563;BME280;1291;51.420;6.970;2022-11-18T10:00:14;98622.63;;;23.64;30.29
2563;BME280;1291;51.420;6.970;2022-11-18T10:05:21;98634.47;;;22.81;31.34
2563;BME280;1291;51.420;6.970;2022-11-18T10:07:58;98626.47;;;23.76;30.46
2563;BME280;1291;51.420;6.970;2022-11-18T10:10:43;98634.53;;;24.27;29.75
2563;BME280;1291;51.420;6.970;2022-11-18T10:18:38;98640.38;;;25.32;27.72
2563;BME280;1291;51.420;6.970;2022-11-18T10:24:21;98655.72;;;23.56;30.83
2563;BME280;1291;51.420;6.970;2022-11-18T10:26:46;98654.47;;;24.52;29.33
2563;BME280;1291;51.420;6.970;2022-11-18T10:29:12;98648.72;;;25.26;28.00
2563;BME280;1291;51.420;6.970;2022-11-18T10:31:39;98650.03;;;23.82;30.56
2563;BME280;1291;51.420;6.970;2022-11-18T10:34:07;98663.00;;;22.35;31.94
2563;BME280;1291;51.420;6.970;2022-11-18T10:36:38;98658.84;;;24.18;29.30
2563;BME280;1291;51.420;6.970;2022-11-18T10:39:10;98663.75;;;23.91;29.51
2563;BME280;1291;51.420;6.970;2022-11-18T10:41:45;98658.63;;;23.87;29.91
2563;BME280;1291;51.420;6.970;2022-11-18T10:44:47;98668.13;;;22.18;32.05
2563;BME280;1291;51.420;6.970;2022-11-18T10:49:45;98661.88;;;22.80;31.38
2563;BME280;1291;51.420;6.970;2022-11-18T10:52:12;98663.91;;;23.51;30.00
2563;BME280;1291;51.420;6.970;2022-11-18T10:54:38;98664.19;;;23.64;30.31
2563;BME280;1291;51.420;6.970;2022-11-18T10:57:23;98661.16;;;24.92;27.76
2563;BME280;1291;51.420;6.970;2022-11-18T10:59:56;98660.88;;;24.13;29.11
2563;BME280;1291;51.420;6.970;2022-11-18T11:02:38;98667.16;;;23.39;30.42
2563;BME280;1291;51.420;6.970;2022-11-18T11:05:18;98669.94;;;23.72;29.63
2563;BME280;1291;51.420;6.970;2022-11-18T11:07:44;98667.28;;;23.36;30.11
2563;BME280;1291;51.420;6.970;2022-11-18T11:12:41;98678.09;;;23.86;29.20
2563;BME280;1291;51.420;6.970;2022-11-18T11:15:40;98665.28;;;23.41;30.14
2563;BME280;1291;51.420;6.970;2022-11-18T11:20:59;98663.38;;;25.33;27.47
2563;BME280;1291;51.420;6.970;2022-11-18T11:23:24;98669.50;;;25.18;28.03
2563;BME280;1291;51.420;6.970;2022-11-18T11:25:58;98665.94;;;25.35;27.42
2563;BME280;1291;51.420;6.970;2022-11-18T11:34:06;98678.59;;;24.12;29.28
2563;BME280;1291;51.420;6.970;2022-11-18T11:36:49;98673.03;;;26.57;25.76
2563;BME280;1291;51.420;6.970;2022-11-18T11:42:08;98686.56;;;24.80;28.46
2563;BME280;1291;51.420;6.970;2022-11-18T11:47:28;98681.47;;;24.07;28.76
2563;BME280;1291;51.420;6.970;2022-11-18T11:50:21;98689.50;;;24.41;28.92
2563;BME280;1291;51.420;6.970;2022-11-18T11:53:16;98685.81;;;25.59;27.67
2563;BME280;1291;51.420;6.970;2022-11-18T11:58:38;98691.16;;;23.72;29.75
2563;BME280;1291;51.420;6.970;2022-11-18T12:01:20;98691.78;;;24.31;28.35
2563;BME280;1291;51.420;6.970;2022-11-18T12:04:03;98686.56;;;25.61;26.81
2563;BME280;1291;51.420;6.970;2022-11-18T12:06:34;98686.03;;;26.33;25.75
2563;BME280;1291;51.420;6.970;2022-11-18T12:09:12;98688.66;;;25.56;26.79
2563;BME280;1291;51.420;6.970;2022-11-18T12:11:48;98680.47;;;25.12;27.93
2563;BME280;1291;51.420;6.970;2022-11-18T12:19:37;98680.53;;;24.43;28.02
2563;BME280;1291;51.420;6.970;2022-11-18T12:22:03;98683.81;;;24.48;28.13
2563;BME280;1291;51.420;6.970;2022-11-18T12:24:37;98679.78;;;26.03;26.32
2563;BME280;1291;51.420;6.970;2022-11-18T12:27:09;98686.47;;;26.25;26.35
2563;BME280;1291;51.420;6.970;2022-11-18T12:32:40;98688.69;;;25.07;28.17
2563;BME280;1291;51.420;6.970;2022-11-18T12:37:43;98692.22;;;22.92;30.69
2563;BME280;1291;51.420;6.970;2022-11-18T12:40:10;98685.50;;;25.00;27.34
2563;BME280;1291;51.420;6.970;2022-11-18T12:42:54;98687.88;;;24.21;28.77
2563;BME280;1291;51.420;6.970;2022-11-18T12:53:44;98700.47;;;26.29;26.20
2563;BME280;1291;51.420;6.970;2022-11-18T12:58:50;98702.78;;;24.58;27.63
2563;BME280;1291;51.420;6.970;2022-11-18T13:01:19;98700.16;;;25.08;27.24
2563;BME280;1291;51.420;6.970;2022-11-18T13:03:45;98707.72;;;25.15;27.30
2563;BME280;1291;51.420;6.970;2022-11-18T13:06:29;98714.78;;;25.80;26.56
2563;BME280;1291;51.420;6.970;2022-11-18T13:09:00;98709.41;;;26.87;25.33
2563;BME280;1291;51.420;6.970;2022-11-18T13:11:27;98709.09;;;26.02;26.20
2563;BME280;1291;51.420;6.970;2022-11-18T13:17:24;98711.00;;;24.87;27.39
2563;BME280;1291;51.420;6.970;2022-11-18T13:22:51;98716.59;;;25.95;26.41
2563;BME280;1291;51.420;6.970;2022-11-18T13:25:35;98715.88;;;27.26;24.37
2563;BME280;1291;51.420;6.970;2022-11-18T13:30:29;98715.13;;;26.80;24.87
2563;BME280;1291;51.420;6.970;2022-11-18T13:32:57;98720.63;;;24.72;27.17
2563;BME280;1291;51.420;6.970;2022-11-18T13:35:24;98727.44;;;24.60;27.88
2563;BME280;1291;51.420;6.970;2022-11-18T13:37:59;98727.19;;;24.47;27.17
2563;BME280;1291;51.420;6.970;2022-11-18T13:40:27;98726.97;;;24.35;27.78
2563;BME280;1291;51.420;6.970;2022-11-18T13:42:53;98725.00;;;26.78;24.33
2563;BME280;1291;51.420;6.970;2022-11-18T13:45:22;98731.88;;;24.25;27.77
2563;BME280;1291;51.420;6.970;2022-11-18T13:48:06;98742.03;;;24.69;27.29
2563;BME280;1291;51.420;6.970;2022-11-18T13:50:46;98740.59;;;25.13;26.66
2563;BME280;1291;51.420;6.970;2022-11-18T13:53:29;98741.66;;;22.71;29.99
2563;BME280;1291;51.420;6.970;2022-11-18T13:56:01;98739.41;;;22.62;30.57
2563;BME280;1291;51.420;6.970;2022-11-18T13:58:37;98744.25;;;24.24;28.16
2563;BME280;1291;51.420;6.970;2022-11-18T14:01:11;98739.31;;;24.53;27.80
2563;BME280;1291;51.420;6.970;2022-11-18T14:08:48;98744.00;;;23.94;29.16
2563;BME280;1291;51.420;6.970;2022-11-18T14:11:33;98747.28;;;23.04;30.07
2563;BME280;1291;51.420;6.970;2022-11-18T14:13:59;98750.41;;;22.53;30.66
2563;BME280;1291;51.420;6.970;2022-11-18T14:16:34;98756.47;;;22.34;31.41
2563;BME280;1291;51.420;6.970;2022-11-18T14:18:59;98754.97;;;23.48;29.11
2563;BME280;1291;51.420;6.970;2022-11-18T14:21:43;98759.28;;;23.51;29.36
2563;BME280;1291;51.420;6.970;2022-11-18T14:24:13;98749.94;;;25.37;26.50
2563;BME280;1291;51.420;6.970;2022-11-18T14:26:38;98763.75;;;24.06;28.21
2563;BME280;1291;51.420;6.970;2022-11-18T14:29:18;98751.31;;;25.44;26.41
2563;BME280;1291;51.420;6.970;2022-11-18T14:32:12;98751.34;;;24.60;27.92
2563;BME280;1291;51.420;6.970;2022-11-18T14:34:38;98754.97;;;25.26;26.60
2563;BME280;1291;51.420;6.970;2022-11-18T14:37:10;98763.84;;;24.22;28.28
2563;BME280;1291;51.420;6.970;2022-11-18T14:39:37;98767.78;;;23.96;28.44
2563;BME280;1291;51.420;6.970;2022-11-18T14:42:03;98761.31;;;22.86;30.03
2563;BME280;1291;51.420;6.970;2022-11-18T14:44:31;98766.22;;;24.80;27.52
2563;BME280;1291;51.420;6.970;2022-11-18T14:46:57;98770.09;;;24.38;27.78
2563;BME280;1291;51.420;6.970;2022-11-18T14:49:24;98770.56;;;24.81;26.76
2563;BME280;1291;51.420;6.970;2022-11-18T14:51:51;98771.16;;;23.61;29.02
2563;BME280;1291;51.420;6.970;2022-11-18T14:54:18;98772.16;;;25.19;26.56
2563;BME280;1291;51.420;6.970;2022-11-18T14:56:45;98776.13;;;24.77;27.17
2563;BME280;1291;51.420;6.970;2022-11-18T14:59:13;98771.97;;;24.36;27.68
2563;BME280;1291;51.420;6.970;2022-11-18T15:01:39;98777.53;;;24.49;27.50
2563;BME280;1291;51.420;6.970;2022-11-18T15:04:05;98777.25;;;23.82;28.52
2563;BME280;1291;51.420;6.970;2022-11-18T15:06:30;98773.41;;;23.12;29.55
2563;BME280;1291;51.420;6.970;2022-11-18T15:08:56;98773.75;;;23.04;29.50
2563;BME280;1291;51.420;6.970;2022-11-18T15:11:27;98779.25;;;25.36;26.01